sensor_id;sensor_type;location;lat;lon;timestamp;P1;durP1;ratioP1;P2;durP2;ratioP2
17592;SDS011;8915;51.760;14.300;2023-03-01T00:00:47;17.33;;;10.07;;
17592;SDS011;8915;51.760;14.300;2023-03-01T00:03:16;14.07;;;9.00;;
17592;SDS011;8915;51.760;14.300;2023-03-01T00:05:52;15.97;;;9.97;;
17592;SDS011;8915;51.760;14.300;2023-03-01T00:08:19;13.70;;;8.80;;
17592;SDS011;8915;51.760;14.300;2023-03-01T00:10:48;15.20;;;8.60;;
17592;SDS011;8915;51.760;14.300;2023-03-01T00:13:14;18.77;;;9.27;;
17592;SDS011;8915;51.760;14.300;2023-03-01T00:15:43;16.97;;;10.10;;
17592;SDS011;8915;51.760;14.300;2023-03-01T00:18:11;13.30;;;9.07;;
17592;SDS011;8915;51.760;14.300;2023-03-01T00:20:38;15.53;;;9.53;;
17592;SDS011;8915;51.760;14.300;2023-03-01T00:23:05;15.10;;;8.87;;
17592;SDS011;8915;51.760;14.300;2023-03-01T00:25:40;21.10;;;8.93;;
17592;SDS011;8915;51.760;14.300;2023-03-01T00:28:12;16.70;;;9.70;;
17592;SDS011;8915;51.760;14.300;2023-03-01T00:31:02;15.77;;;9.10;;
17592;SDS011;8915;51.760;14.300;2023-03-01T00:33:31;13.07;;;8.57;;
17592;SDS011;8915;51.760;14.300;2023-03-01T00:35:58;15.27;;;9.63;;
17592;SDS011;8915;51.760;14.300;2023-03-01T00:38:27;19.10;;;9.43;;
17592;SDS011;8915;51.760;14.300;2023-03-01T00:40:54;16.73;;;9.77;;
17592;SDS011;8915;51.760;14.300;2023-03-01T00:43:23;17.03;;;9.77;;
17592;SDS011;8915;51.760;14.300;2023-03-01T00:45:50;17.90;;;9.40;;
17592;SDS011;8915;51.760;14.300;2023-03-01T00:48:17;15.70;;;8.77;;
17592;SDS011;8915;51.760;14.300;2023-03-01T00:50:43;19.63;;;9.93;;
17592;SDS011;8915;51.760;14.300;2023-03-01T00:53:10;13.00;;;8.20;;
17592;SDS011;8915;51.760;14.300;2023-03-01T00:55:37;18.17;;;9.07;;
17592;SDS011;8915;51.760;14.300;2023-03-01T00:58:04;15.30;;;8.67;;
17592;SDS011;8915;51.760;14.300;2023-03-01T01:00:32;20.27;;;9.30;;
17592;SDS011;8915;51.760;14.300;2023-03-01T01:02:59;17.27;;;8.63;;
17592;SDS011;8915;51.760;14.300;2023-03-01T01:05:26;18.10;;;9.13;;
17592;SDS011;8915;51.760;14.300;2023-03-01T01:07:53;19.47;;;9.23;;
17592;SDS011;8915;51.760;14.300;2023-03-01T01:10:19;16.37;;;8.83;;
17592;SDS011;8915;51.760;14.300;2023-03-01T01:12:50;16.00;;;9.50;;
17592;SDS011;8915;51.760;14.300;2023-03-01T01:15:17;14.03;;;7.80;;
17592;SDS011;8915;51.760;14.300;2023-03-01T01:17:45;14.33;;;8.57;;
17592;SDS011;8915;51.760;14.300;2023-03-01T01:20:11;13.40;;;8.30;;
17592;SDS011;8915;51.760;14.300;2023-03-01T01:22:37;18.70;;;9.53;;
17592;SDS011;8915;51.760;14.300;2023-03-01T01:25:04;14.53;;;8.43;;
17592;SDS011;8915;51.760;14.300;2023-03-01T01:27:31;13.77;;;8.90;;
17592;SDS011;8915;51.760;14.300;2023-03-01T01:29:57;13.90;;;8.80;;
17592;SDS011;8915;51.760;14.300;2023-03-01T01:32:24;16.37;;;9.23;;
17592;SDS011;8915;51.760;14.300;2023-03-01T01:34:52;19.33;;;9.60;;
17592;SDS011;8915;51.760;14.300;2023-03-01T01:37:19;14.93;;;8.10;;
17592;SDS011;8915;51.760;14.300;2023-03-01T01:39:45;18.73;;;8.60;;
17592;SDS011;8915;51.760;14.300;2023-03-01T01:42:12;15.17;;;8.57;;
17592;SDS011;8915;51.760;14.300;2023-03-01T01:44:42;17.90;;;9.13;;
17592;SDS011;8915;51.760;14.300;2023-03-01T01:47:12;15.67;;;8.87;;
17592;SDS011;8915;51.760;14.300;2023-03-01T01:49:44;13.90;;;9.17;;
17592;SDS011;8915;51.760;14.300;2023-03-01T01:52:16;17.37;;;8.27;;
17592;SDS011;8915;51.760;14.300;2023-03-01T01:54:46;15.20;;;8.83;;
17592;SDS011;8915;51.760;14.300;2023-03-01T01:57:20;17.30;;;8.77;;
17592;SDS011;8915;51.760;14.300;2023-03-01T01:59:52;15.03;;;8.43;;
17592;SDS011;8915;51.760;14.300;2023-03-01T02:02:22;13.33;;;8.73;;
17592;SDS011;8915;51.760;14.300;2023-03-01T02:04:49;13.37;;;9.07;;
17592;SDS011;8915;51.760;14.300;2023-03-01T02:07:24;14.67;;;9.00;;
17592;SDS011;8915;51.760;14.300;2023-03-01T02:09:52;17.43;;;9.07;;
17592;SDS011;8915;51.760;14.300;2023-03-01T02:12:19;15.30;;;9.07;;
17592;SDS011;8915;51.760;14.300;2023-03-01T02:14:48;15.60;;;8.43;;
17592;SDS011;8915;51.760;14.300;2023-03-01T02:17:14;16.57;;;8.57;;
17592;SDS011;8915;51.760;14.300;2023-03-01T02:19:46;13.33;;;8.10;;
17592;SDS011;8915;51.760;14.300;2023-03-01T02:22:22;17.67;;;9.10;;
17592;SDS011;8915;51.760;14.300;2023-03-01T02:24:57;14.33;;;8.03;;
17592;SDS011;8915;51.760;14.300;2023-03-01T02:27:35;15.57;;;9.03;;
17592;SDS011;8915;51.760;14.300;2023-03-01T02:30:08;13.27;;;9.27;;
17592;SDS011;8915;51.760;14.300;2023-03-01T02:32:39;19.73;;;10.00;;
17592;SDS011;8915;51.760;14.300;2023-03-01T02:35:07;18.23;;;9.03;;
17592;SDS011;8915;51.760;14.300;2023-03-01T02:37:34;18.37;;;9.47;;
17592;SDS011;8915;51.760;14.300;2023-03-01T02:40:06;13.40;;;8.77;;
17592;SDS011;8915;51.760;14.300;2023-03-01T02:42:40;13.73;;;7.70;;
17592;SDS011;8915;51.760;14.300;2023-03-01T02:45:12;15.63;;;9.20;;
17592;SDS011;8915;51.760;14.300;2023-03-01T02:47:39;16.23;;;8.70;;
17592;SDS011;8915;51.760;14.300;2023-03-01T02:50:11;14.33;;;9.33;;
17592;SDS011;8915;51.760;14.300;2023-03-01T02:52:51;17.37;;;9.10;;
17592;SDS011;8915;51.760;14.300;2023-03-01T02:55:22;15.00;;;8.77;;
17592;SDS011;8915;51.760;14.300;2023-03-01T02:57:49;14.90;;;8.57;;
17592;SDS011;8915;51.760;14.300;2023-03-01T03:00:19;15.47;;;8.53;;
17592;SDS011;8915;51.760;14.300;2023-03-01T03:02:49;18.23;;;9.50;;
17592;SDS011;8915;51.760;14.300;2023-03-01T03:05:19;15.67;;;8.23;;
17592;SDS011;8915;51.760;14.300;2023-03-01T03:07:50;15.93;;;8.87;;
17592;SDS011;8915;51.760;14.300;2023-03-01T03:10:20;14.20;;;7.80;;
17592;SDS011;8915;51.760;14.300;2023-03-01T03:12:49;13.20;;;8.53;;
17592;SDS011;8915;51.760;14.300;2023-03-01T03:15:18;16.77;;;9.13;;
17592;SDS011;8915;51.760;14.300;2023-03-01T03:17:45;16.07;;;9.37;;
17592;SDS011;8915;51.760;14.300;2023-03-01T03:20:13;16.00;;;8.90;;
17592;SDS011;8915;51.760;14.300;2023-03-01T03:22:44;13.90;;;8.37;;
17592;SDS011;8915;51.760;14.300;2023-03-01T03:25:10;16.27;;;9.00;;
17592;SDS011;8915;51.760;14.300;2023-03-01T03:27:37;17.87;;;10.63;;
17592;SDS011;8915;51.760;14.300;2023-03-01T03:30:05;15.87;;;9.43;;
17592;SDS011;8915;51.760;14.300;2023-03-01T03:32:35;15.53;;;9.70;;
17592;SDS011;8915;51.760;14.300;2023-03-01T03:35:02;14.53;;;9.40;;
17592;SDS011;8915;51.760;14.300;2023-03-01T03:37:34;21.27;;;9.20;;
17592;SDS011;8915;51.760;14.300;2023-03-01T03:40:17;22.77;;;10.23;;
17592;SDS011;8915;51.760;14.300;2023-03-01T03:42:44;12.53;;;8.23;;
17592;SDS011;8915;51.760;14.300;2023-03-01T03:45:10;15.60;;;8.90;;
17592;SDS011;8915;51.760;14.300;2023-03-01T03:47:38;16.23;;;9.27;;
17592;SDS011;8915;51.760;14.300;2023-03-01T03:50:05;16.90;;;8.77;;
17592;SDS011;8915;51.760;14.300;2023-03-01T03:52:32;16.83;;;8.13;;
17592;SDS011;8915;51.760;14.300;2023-03-01T03:54:58;15.40;;;9.00;;
17592;SDS011;8915;51.760;14.300;2023-03-01T03:57:24;16.30;;;9.77;;
17592;SDS011;8915;51.760;14.300;2023-03-01T03:59:51;22.43;;;9.23;;
17592;SDS011;8915;51.760;14.300;2023-03-01T04:02:17;13.10;;;8.57;;
17592;SDS011;8915;51.760;14.300;2023-03-01T04:04:50;17.70;;;9.40;;
17592;SDS011;8915;51.760;14.300;2023-03-01T04:07:17;18.53;;;8.83;;
17592;SDS011;8915;51.760;14.300;2023-03-01T04:09:43;13.90;;;7.63;;
17592;SDS011;8915;51.760;14.300;2023-03-01T04:12:13;16.10;;;8.73;;
17592;SDS011;8915;51.760;14.300;2023-03-01T04:14:45;14.83;;;8.70;;
17592;SDS011;8915;51.760;14.300;2023-03-01T04:17:12;15.50;;;9.87;;
17592;SDS011;8915;51.760;14.300;2023-03-01T04:19:38;18.67;;;10.03;;
17592;SDS011;8915;51.760;14.300;2023-03-01T04:22:06;16.93;;;8.37;;
17592;SDS011;8915;51.760;14.300;2023-03-01T04:24:34;15.30;;;8.67;;
17592;SDS011;8915;51.760;14.300;2023-03-01T04:27:01;16.90;;;8.47;;
17592;SDS011;8915;51.760;14.300;2023-03-01T04:29:28;14.20;;;8.10;;
17592;SDS011;8915;51.760;14.300;2023-03-01T04:31:54;16.27;;;8.33;;
17592;SDS011;8915;51.760;14.300;2023-03-01T04:34:21;20.77;;;9.37;;
17592;SDS011;8915;51.760;14.300;2023-03-01T04:36:47;15.70;;;9.70;;
17592;SDS011;8915;51.760;14.300;2023-03-01T04:39:15;14.37;;;8.97;;
17592;SDS011;8915;51.760;14.300;2023-03-01T04:41:42;15.97;;;9.00;;
17592;SDS011;8915;51.760;14.300;2023-03-01T04:44:09;13.43;;;7.87;;
17592;SDS011;8915;51.760;14.300;2023-03-01T04:46:36;16.23;;;8.13;;
17592;SDS011;8915;51.760;14.300;2023-03-01T04:49:03;15.83;;;8.37;;
17592;SDS011;8915;51.760;14.300;2023-03-01T04:51:30;18.37;;;8.40;;
17592;SDS011;8915;51.760;14.300;2023-03-01T04:53:57;19.73;;;10.00;;
17592;SDS011;8915;51.760;14.300;2023-03-01T04:56:27;22.17;;;10.87;;
17592;SDS011;8915;51.760;14.300;2023-03-01T04:58:53;20.53;;;9.97;;
17592;SDS011;8915;51.760;14.300;2023-03-01T05:01:20;17.27;;;7.83;;
17592;SDS011;8915;51.760;14.300;2023-03-01T05:03:47;15.83;;;8.70;;
17592;SDS011;8915;51.760;14.300;2023-03-01T05:06:15;14.70;;;8.70;;
17592;SDS011;8915;51.760;14.300;2023-03-01T05:08:42;15.60;;;9.27;;
17592;SDS011;8915;51.760;14.300;2023-03-01T05:11:10;17.00;;;8.50;;
17592;SDS011;8915;51.760;14.300;2023-03-01T05:13:38;15.17;;;8.03;;
17592;SDS011;8915;51.760;14.300;2023-03-01T05:16:06;13.50;;;8.43;;
17592;SDS011;8915;51.760;14.300;2023-03-01T05:18:36;16.77;;;8.73;;
17592;SDS011;8915;51.760;14.300;2023-03-01T05:21:04;14.80;;;8.47;;
17592;SDS011;8915;51.760;14.300;2023-03-01T05:23:33;14.10;;;8.47;;
17592;SDS011;8915;51.760;14.300;2023-03-01T05:26:01;13.70;;;8.13;;
17592;SDS011;8915;51.760;14.300;2023-03-01T05:28:29;17.40;;;8.77;;
17592;SDS011;8915;51.760;14.300;2023-03-01T05:30:57;16.07;;;8.37;;
17592;SDS011;8915;51.760;14.300;2023-03-01T05:33:24;12.77;;;7.87;;
17592;SDS011;8915;51.760;14.300;2023-03-01T05:35:59;17.77;;;8.33;;
17592;SDS011;8915;51.760;14.300;2023-03-01T05:38:26;15.00;;;8.00;;
17592;SDS011;8915;51.760;14.300;2023-03-01T05:40:52;18.23;;;8.33;;
17592;SDS011;8915;51.760;14.300;2023-03-01T05:43:19;15.27;;;8.00;;
17592;SDS011;8915;51.760;14.300;2023-03-01T05:45:45;17.33;;;9.03;;
17592;SDS011;8915;51.760;14.300;2023-03-01T05:48:13;15.27;;;9.30;;
17592;SDS011;8915;51.760;14.300;2023-03-01T05:50:41;15.57;;;8.53;;
17592;SDS011;8915;51.760;14.300;2023-03-01T05:53:09;12.90;;;8.63;;
17592;SDS011;8915;51.760;14.300;2023-03-01T05:55:37;12.90;;;8.33;;
17592;SDS011;8915;51.760;14.300;2023-03-01T05:58:06;15.13;;;8.90;;
17592;SDS011;8915;51.760;14.300;2023-03-01T06:00:33;16.37;;;8.93;;
17592;SDS011;8915;51.760;14.300;2023-03-01T06:03:00;18.50;;;9.73;;
17592;SDS011;8915;51.760;14.300;2023-03-01T06:05:29;18.73;;;8.17;;
17592;SDS011;8915;51.760;14.300;2023-03-01T06:07:58;15.77;;;9.00;;
17592;SDS011;8915;51.760;14.300;2023-03-01T06:10:25;15.57;;;8.63;;
17592;SDS011;8915;51.760;14.300;2023-03-01T06:12:51;14.63;;;8.13;;
17592;SDS011;8915;51.760;14.300;2023-03-01T06:15:18;19.30;;;10.60;;
17592;SDS011;8915;51.760;14.300;2023-03-01T06:17:45;19.87;;;9.73;;
17592;SDS011;8915;51.760;14.300;2023-03-01T06:20:12;21.13;;;10.17;;
17592;SDS011;8915;51.760;14.300;2023-03-01T06:22:42;20.47;;;10.77;;
17592;SDS011;8915;51.760;14.300;2023-03-01T06:25:09;20.00;;;10.90;;
17592;SDS011;8915;51.760;14.300;2023-03-01T06:27:37;18.17;;;9.63;;
17592;SDS011;8915;51.760;14.300;2023-03-01T06:30:05;22.57;;;10.80;;
17592;SDS011;8915;51.760;14.300;2023-03-01T06:32:32;24.87;;;11.80;;
17592;SDS011;8915;51.760;14.300;2023-03-01T06:34:59;17.60;;;9.40;;
17592;SDS011;8915;51.760;14.300;2023-03-01T06:37:25;20.27;;;10.13;;
17592;SDS011;8915;51.760;14.300;2023-03-01T06:39:53;20.27;;;10.47;;
17592;SDS011;8915;51.760;14.300;2023-03-01T06:42:20;19.70;;;10.47;;
17592;SDS011;8915;51.760;14.300;2023-03-01T06:44:46;18.33;;;10.77;;
17592;SDS011;8915;51.760;14.300;2023-03-01T06:47:13;19.20;;;11.13;;
17592;SDS011;8915;51.760;14.300;2023-03-01T06:49:40;16.77;;;9.70;;
17592;SDS011;8915;51.760;14.300;2023-03-01T06:52:07;21.40;;;11.30;;
17592;SDS011;8915;51.760;14.300;2023-03-01T06:54:33;19.37;;;11.57;;
17592;SDS011;8915;51.760;14.300;2023-03-01T06:57:01;18.97;;;11.87;;
17592;SDS011;8915;51.760;14.300;2023-03-01T06:59:28;25.03;;;11.50;;
17592;SDS011;8915;51.760;14.300;2023-03-01T07:01:54;21.10;;;12.63;;
17592;SDS011;8915;51.760;14.300;2023-03-01T07:04:21;24.30;;;13.63;;
17592;SDS011;8915;51.760;14.300;2023-03-01T07:06:47;17.67;;;11.70;;
17592;SDS011;8915;51.760;14.300;2023-03-01T07:09:20;22.17;;;12.90;;
17592;SDS011;8915;51.760;14.300;2023-03-01T07:11:47;26.10;;;15.57;;
17592;SDS011;8915;51.760;14.300;2023-03-01T07:14:15;27.17;;;14.47;;
17592;SDS011;8915;51.760;14.300;2023-03-01T07:16:42;27.70;;;14.13;;
17592;SDS011;8915;51.760;14.300;2023-03-01T07:19:08;24.83;;;14.07;;
17592;SDS011;8915;51.760;14.300;2023-03-01T07:21:35;24.47;;;14.07;;
17592;SDS011;8915;51.760;14.300;2023-03-01T07:24:03;24.47;;;14.60;;
17592;SDS011;8915;51.760;14.300;2023-03-01T07:26:30;23.70;;;13.77;;
17592;SDS011;8915;51.760;14.300;2023-03-01T07:28:58;29.43;;;16.07;;
17592;SDS011;8915;51.760;14.300;2023-03-01T07:31:26;25.73;;;15.27;;
17592;SDS011;8915;51.760;14.300;2023-03-01T07:33:53;33.77;;;16.37;;
17592;SDS011;8915;51.760;14.300;2023-03-01T07:36:20;29.53;;;15.93;;
17592;SDS011;8915;51.760;14.300;2023-03-01T07:38:46;66.83;;;27.10;;
17592;SDS011;8915;51.760;14.300;2023-03-01T07:41:12;39.03;;;16.23;;
17592;SDS011;8915;51.760;14.300;2023-03-01T07:43:39;32.60;;;18.20;;
17592;SDS011;8915;51.760;14.300;2023-03-01T07:46:06;33.87;;;18.27;;
17592;SDS011;8915;51.760;14.300;2023-03-01T07:48:34;36.13;;;18.23;;
17592;SDS011;8915;51.760;14.300;2023-03-01T07:51:02;32.93;;;18.70;;
17592;SDS011;8915;51.760;14.300;2023-03-01T07:53:29;35.10;;;19.80;;
17592;SDS011;8915;51.760;14.300;2023-03-01T07:56:00;35.77;;;20.57;;
17592;SDS011;8915;51.760;14.300;2023-03-01T07:58:27;37.60;;;19.63;;
17592;SDS011;8915;51.760;14.300;2023-03-01T08:00:54;33.80;;;18.27;;
17592;SDS011;8915;51.760;14.300;2023-03-01T08:03:20;34.30;;;18.43;;
17592;SDS011;8915;51.760;14.300;2023-03-01T08:05:48;34.10;;;18.30;;
17592;SDS011;8915;51.760;14.300;2023-03-01T08:08:14;36.10;;;18.97;;
17592;SDS011;8915;51.760;14.300;2023-03-01T08:10:41;38.30;;;19.33;;
17592;SDS011;8915;51.760;14.300;2023-03-01T08:13:07;34.73;;;18.50;;
17592;SDS011;8915;51.760;14.300;2023-03-01T08:15:34;32.83;;;19.07;;
17592;SDS011;8915;51.760;14.300;2023-03-01T08:18:00;41.77;;;20.63;;
17592;SDS011;8915;51.760;14.300;2023-03-01T08:20:27;38.80;;;20.33;;
17592;SDS011;8915;51.760;14.300;2023-03-01T08:22:54;38.60;;;20.13;;
17592;SDS011;8915;51.760;14.300;2023-03-01T08:25:21;41.53;;;19.90;;
17592;SDS011;8915;51.760;14.300;2023-03-01T08:27:47;39.60;;;20.83;;
17592;SDS011;8915;51.760;14.300;2023-03-01T08:30:14;43.17;;;23.30;;
17592;SDS011;8915;51.760;14.300;2023-03-01T08:32:41;44.47;;;22.50;;
17592;SDS011;8915;51.760;14.300;2023-03-01T08:35:08;41.63;;;21.93;;
17592;SDS011;8915;51.760;14.300;2023-03-01T08:37:34;54.20;;;24.07;;
17592;SDS011;8915;51.760;14.300;2023-03-01T08:40:07;48.37;;;22.90;;
17592;SDS011;8915;51.760;14.300;2023-03-01T08:42:35;51.83;;;27.10;;
17592;SDS011;8915;51.760;14.300;2023-03-01T08:45:03;57.70;;;26.90;;
17592;SDS011;8915;51.760;14.300;2023-03-01T08:47:29;46.57;;;24.93;;
17592;SDS011;8915;51.760;14.300;2023-03-01T08:49:56;45.30;;;22.57;;
17592;SDS011;8915;51.760;14.300;2023-03-01T08:52:22;57.47;;;29.03;;
17592;SDS011;8915;51.760;14.300;2023-03-01T08:54:49;45.10;;;23.33;;
17592;SDS011;8915;51.760;14.300;2023-03-01T08:57:17;52.23;;;24.17;;
17592;SDS011;8915;51.760;14.300;2023-03-01T08:59:43;49.63;;;26.30;;
17592;SDS011;8915;51.760;14.300;2023-03-01T09:02:12;55.43;;;27.17;;
17592;SDS011;8915;51.760;14.300;2023-03-01T09:04:44;50.63;;;26.53;;
17592;SDS011;8915;51.760;14.300;2023-03-01T09:07:10;51.03;;;25.37;;
17592;SDS011;8915;51.760;14.300;2023-03-01T09:09:37;42.47;;;23.07;;
17592;SDS011;8915;51.760;14.300;2023-03-01T09:12:03;50.57;;;25.30;;
17592;SDS011;8915;51.760;14.300;2023-03-01T09:14:32;49.23;;;24.57;;
17592;SDS011;8915;51.760;14.300;2023-03-01T09:16:58;51.03;;;26.77;;
17592;SDS011;8915;51.760;14.300;2023-03-01T09:19:27;60.57;;;29.23;;
17592;SDS011;8915;51.760;14.300;2023-03-01T09:21:54;58.20;;;27.27;;
17592;SDS011;8915;51.760;14.300;2023-03-01T09:24:22;56.50;;;27.37;;
17592;SDS011;8915;51.760;14.300;2023-03-01T09:26:49;64.77;;;30.07;;
17592;SDS011;8915;51.760;14.300;2023-03-01T09:29:19;57.30;;;25.60;;
17592;SDS011;8915;51.760;14.300;2023-03-01T09:31:47;67.03;;;27.80;;
17592;SDS011;8915;51.760;14.300;2023-03-01T09:34:13;51.50;;;25.33;;
17592;SDS011;8915;51.760;14.300;2023-03-01T09:36:41;56.00;;;26.37;;
17592;SDS011;8915;51.760;14.300;2023-03-01T09:39:08;59.67;;;26.00;;
17592;SDS011;8915;51.760;14.300;2023-03-01T09:41:38;56.87;;;24.93;;
17592;SDS011;8915;51.760;14.300;2023-03-01T09:44:16;53.17;;;23.77;;
17592;SDS011;8915;51.760;14.300;2023-03-01T09:46:51;49.00;;;22.67;;
17592;SDS011;8915;51.760;14.300;2023-03-01T09:49:18;43.43;;;22.73;;
17592;SDS011;8915;51.760;14.300;2023-03-01T09:51:54;48.57;;;22.33;;
17592;SDS011;8915;51.760;14.300;2023-03-01T09:54:22;45.70;;;21.03;;
17592;SDS011;8915;51.760;14.300;2023-03-01T09:56:53;44.37;;;18.67;;
17592;SDS011;8915;51.760;14.300;2023-03-01T09:59:28;29.63;;;16.17;;
17592;SDS011;8915;51.760;14.300;2023-03-01T10:02:00;37.73;;;17.27;;
17592;SDS011;8915;51.760;14.300;2023-03-01T10:04:41;33.60;;;17.93;;
17592;SDS011;8915;51.760;14.300;2023-03-01T10:07:17;29.70;;;16.33;;
17592;SDS011;8915;51.760;14.300;2023-03-01T10:09:51;20.53;;;12.07;;
17592;SDS011;8915;51.760;14.300;2023-03-01T10:12:19;22.00;;;12.07;;
17592;SDS011;8915;51.760;14.300;2023-03-01T10:14:51;20.47;;;11.23;;
17592;SDS011;8915;51.760;14.300;2023-03-01T10:17:25;21.57;;;10.47;;
17592;SDS011;8915;51.760;14.300;2023-03-01T10:19:59;16.93;;;8.43;;
17592;SDS011;8915;51.760;14.300;2023-03-01T10:22:41;13.60;;;8.50;;
17592;SDS011;8915;51.760;14.300;2023-03-01T10:25:12;18.30;;;9.60;;
17592;SDS011;8915;51.760;14.300;2023-03-01T10:27:42;16.80;;;8.40;;
17592;SDS011;8915;51.760;14.300;2023-03-01T10:30:18;19.27;;;9.13;;
17592;SDS011;8915;51.760;14.300;2023-03-01T10:32:49;18.80;;;8.63;;
17592;SDS011;8915;51.760;14.300;2023-03-01T10:35:19;14.17;;;8.17;;
17592;SDS011;8915;51.760;14.300;2023-03-01T10:37:58;16.57;;;9.23;;
17592;SDS011;8915;51.760;14.300;2023-03-01T10:40:28;16.33;;;8.50;;
17592;SDS011;8915;51.760;14.300;2023-03-01T10:42:57;15.30;;;8.17;;
17592;SDS011;8915;51.760;14.300;2023-03-01T10:45:30;16.30;;;9.17;;
17592;SDS011;8915;51.760;14.300;2023-03-01T10:48:11;18.00;;;9.10;;
17592;SDS011;8915;51.760;14.300;2023-03-01T10:50:40;16.67;;;7.77;;
17592;SDS011;8915;51.760;14.300;2023-03-01T10:53:16;14.30;;;7.43;;
17592;SDS011;8915;51.760;14.300;2023-03-01T10:55:48;15.23;;;8.77;;
17592;SDS011;8915;51.760;14.300;2023-03-01T10:58:23;14.73;;;8.10;;
17592;SDS011;8915;51.760;14.300;2023-03-01T11:00:50;9.93;;;7.43;;
17592;SDS011;8915;51.760;14.300;2023-03-01T11:03:20;14.53;;;7.30;;
17592;SDS011;8915;51.760;14.300;2023-03-01T11:05:56;21.53;;;12.53;;
17592;SDS011;8915;51.760;14.300;2023-03-01T11:08:32;14.20;;;7.47;;
17592;SDS011;8915;51.760;14.300;2023-03-01T11:11:23;12.50;;;6.87;;
17592;SDS011;8915;51.760;14.300;2023-03-01T11:13:57;17.37;;;8.07;;
17592;SDS011;8915;51.760;14.300;2023-03-01T11:16:27;9.33;;;6.00;;
17592;SDS011;8915;51.760;14.300;2023-03-01T11:19:04;12.47;;;6.10;;
17592;SDS011;8915;51.760;14.300;2023-03-01T11:21:41;13.13;;;6.67;;
17592;SDS011;8915;51.760;14.300;2023-03-01T11:24:14;12.03;;;7.07;;
17592;SDS011;8915;51.760;14.300;2023-03-01T11:26:44;14.63;;;5.43;;
17592;SDS011;8915;51.760;14.300;2023-03-01T11:29:16;8.77;;;4.60;;
17592;SDS011;8915;51.760;14.300;2023-03-01T11:31:48;9.93;;;5.03;;
17592;SDS011;8915;51.760;14.300;2023-03-01T11:34:17;8.60;;;4.93;;
17592;SDS011;8915;51.760;14.300;2023-03-01T11:36:51;8.47;;;5.30;;
17592;SDS011;8915;51.760;14.300;2023-03-01T11:39:22;10.13;;;5.23;;
17592;SDS011;8915;51.760;14.300;2023-03-01T11:42:00;11.43;;;5.93;;
17592;SDS011;8915;51.760;14.300;2023-03-01T11:44:33;12.57;;;5.60;;
17592;SDS011;8915;51.760;14.300;2023-03-01T11:47:15;11.53;;;5.60;;
17592;SDS011;8915;51.760;14.300;2023-03-01T11:50:10;12.43;;;5.50;;
17592;SDS011;8915;51.760;14.300;2023-03-01T11:52:57;11.77;;;6.03;;
17592;SDS011;8915;51.760;14.300;2023-03-01T11:55:36;9.13;;;5.83;;
17592;SDS011;8915;51.760;14.300;2023-03-01T11:58:25;9.00;;;4.80;;
17592;SDS011;8915;51.760;14.300;2023-03-01T12:01:02;10.90;;;5.80;;
17592;SDS011;8915;51.760;14.300;2023-03-01T12:06:41;10.67;;;5.47;;
17592;SDS011;8915;51.760;14.300;2023-03-01T12:09:21;12.03;;;5.50;;
17592;SDS011;8915;51.760;14.300;2023-03-01T12:12:07;9.10;;;5.57;;
17592;SDS011;8915;51.760;14.300;2023-03-01T12:14:51;10.30;;;5.77;;
17592;SDS011;8915;51.760;14.300;2023-03-01T12:17:31;9.93;;;6.10;;
17592;SDS011;8915;51.760;14.300;2023-03-01T12:20:15;10.07;;;5.50;;
17592;SDS011;8915;51.760;14.300;2023-03-01T12:22:57;9.73;;;5.40;;
17592;SDS011;8915;51.760;14.300;2023-03-01T12:25:41;12.57;;;5.83;;
17592;SDS011;8915;51.760;14.300;2023-03-01T12:31:18;9.60;;;5.10;;
17592;SDS011;8915;51.760;14.300;2023-03-01T12:34:01;10.13;;;5.43;;
17592;SDS011;8915;51.760;14.300;2023-03-01T12:36:37;10.07;;;5.33;;
17592;SDS011;8915;51.760;14.300;2023-03-01T12:39:22;8.23;;;5.40;;
17592;SDS011;8915;51.760;14.300;2023-03-01T12:42:10;10.17;;;5.13;;
17592;SDS011;8915;51.760;14.300;2023-03-01T12:44:52;9.00;;;5.30;;
17592;SDS011;8915;51.760;14.300;2023-03-01T12:47:39;6.77;;;4.57;;
17592;SDS011;8915;51.760;14.300;2023-03-01T12:50:21;9.30;;;5.27;;
17592;SDS011;8915;51.760;14.300;2023-03-01T12:52:50;10.47;;;5.23;;
17592;SDS011;8915;51.760;14.300;2023-03-01T12:55:24;12.80;;;6.53;;
17592;SDS011;8915;51.760;14.300;2023-03-01T12:57:57;13.33;;;6.20;;
17592;SDS011;8915;51.760;14.300;2023-03-01T13:00:31;8.93;;;5.33;;
17592;SDS011;8915;51.760;14.300;2023-03-01T13:03:04;9.67;;;5.07;;
17592;SDS011;8915;51.760;14.300;2023-03-01T13:05:41;10.53;;;4.70;;
17592;SDS011;8915;51.760;14.300;2023-03-01T13:08:20;8.03;;;4.47;;
17592;SDS011;8915;51.760;14.300;2023-03-01T13:10:55;7.87;;;4.40;;
17592;SDS011;8915;51.760;14.300;2023-03-01T13:13:24;9.00;;;4.87;;
17592;SDS011;8915;51.760;14.300;2023-03-01T13:15:53;34.53;;;17.90;;
17592;SDS011;8915;51.760;14.300;2023-03-01T13:18:28;8.57;;;5.07;;
17592;SDS011;8915;51.760;14.300;2023-03-01T13:20:57;11.13;;;6.17;;
17592;SDS011;8915;51.760;14.300;2023-03-01T13:23:26;20.73;;;10.60;;
17592;SDS011;8915;51.760;14.300;2023-03-01T13:26:04;8.60;;;4.97;;
17592;SDS011;8915;51.760;14.300;2023-03-01T13:28:38;9.00;;;4.90;;
17592;SDS011;8915;51.760;14.300;2023-03-01T13:34:42;8.10;;;4.67;;
17592;SDS011;8915;51.760;14.300;2023-03-01T13:37:10;8.30;;;4.93;;
17592;SDS011;8915;51.760;14.300;2023-03-01T13:39:46;9.07;;;5.90;;
17592;SDS011;8915;51.760;14.300;2023-03-01T13:45:01;10.63;;;6.27;;
17592;SDS011;8915;51.760;14.300;2023-03-01T13:47:28;10.57;;;5.93;;
17592;SDS011;8915;51.760;14.300;2023-03-01T13:49:56;48.13;;;21.37;;
17592;SDS011;8915;51.760;14.300;2023-03-01T13:52:32;13.40;;;5.87;;
17592;SDS011;8915;51.760;14.300;2023-03-01T13:55:05;11.17;;;5.87;;
17592;SDS011;8915;51.760;14.300;2023-03-01T13:57:44;18.17;;;7.00;;
17592;SDS011;8915;51.760;14.300;2023-03-01T14:00:25;18.43;;;9.27;;
17592;SDS011;8915;51.760;14.300;2023-03-01T14:03:04;14.67;;;8.50;;
17592;SDS011;8915;51.760;14.300;2023-03-01T14:05:35;28.27;;;15.40;;
17592;SDS011;8915;51.760;14.300;2023-03-01T14:08:03;10.00;;;5.83;;
17592;SDS011;8915;51.760;14.300;2023-03-01T14:10:31;10.67;;;5.70;;
17592;SDS011;8915;51.760;14.300;2023-03-01T14:13:10;10.80;;;5.63;;
17592;SDS011;8915;51.760;14.300;2023-03-01T14:16:02;9.80;;;5.40;;
17592;SDS011;8915;51.760;14.300;2023-03-01T14:18:40;10.53;;;5.40;;
17592;SDS011;8915;51.760;14.300;2023-03-01T14:21:13;7.27;;;4.47;;
17592;SDS011;8915;51.760;14.300;2023-03-01T14:23:41;7.97;;;4.53;;
17592;SDS011;8915;51.760;14.300;2023-03-01T14:26:08;10.53;;;5.13;;
17592;SDS011;8915;51.760;14.300;2023-03-01T14:28:38;8.73;;;4.60;;
17592;SDS011;8915;51.760;14.300;2023-03-01T14:33:58;8.83;;;4.77;;
17592;SDS011;8915;51.760;14.300;2023-03-01T14:36:26;13.17;;;6.00;;
17592;SDS011;8915;51.760;14.300;2023-03-01T14:38:54;7.50;;;4.57;;
17592;SDS011;8915;51.760;14.300;2023-03-01T14:41:21;7.27;;;4.30;;
17592;SDS011;8915;51.760;14.300;2023-03-01T14:43:52;8.83;;;4.50;;
17592;SDS011;8915;51.760;14.300;2023-03-01T14:46:24;8.80;;;3.73;;
17592;SDS011;8915;51.760;14.300;2023-03-01T14:48:57;7.83;;;4.20;;
17592;SDS011;8915;51.760;14.300;2023-03-01T14:51:30;9.70;;;3.90;;
17592;SDS011;8915;51.760;14.300;2023-03-01T14:54:00;10.50;;;5.80;;
17592;SDS011;8915;51.760;14.300;2023-03-01T14:56:27;7.47;;;3.90;;
17592;SDS011;8915;51.760;14.300;2023-03-01T14:59:11;6.90;;;3.83;;
17592;SDS011;8915;51.760;14.300;2023-03-01T15:01:37;7.67;;;3.93;;
17592;SDS011;8915;51.760;14.300;2023-03-01T15:04:05;7.00;;;3.70;;
17592;SDS011;8915;51.760;14.300;2023-03-01T15:06:32;7.37;;;4.03;;